Columbus, Ohio
Traffic Map
Current Weather Conditions
Columbus, Ohio
Overcast
Overcast
17°
Feels Like: 17°
Wind Chill: 17° Ceiling: 8000
Heat Index: 17° Visibility: 10mi
Dew Point: Wind: 14mph
Humidity: 46% Direction: 120° (ESE)
Pressure: 29.74in Gusts: 0mph
Raw Report DataKCMH 231951Z 12012KT 10SM BKN080 OVC160 17/05 A2974 RMK AO2 PRESFR SLP071 T01670050 $
Traffic Incident Summary
Active as of:
Severity:
Category:
InformationThere was an issue retrieving the traffic information for this location. Please try a different location or try again shortly.
Advertisements
Track Severe Weather on mobile